Bergamot Ace — ZGAS5 — position and weather

sailwx.info

Track history (hours):
 
Tides and Currents Weather Stations Pressure Air Temp Water Temp Dewpoint Dewpoint Depression Visibility Wind Speed Wind Dir Waves Ship Positions

Bergamot Ace

Last reported at 2016-Jun-30 18:24 UTC. Time now 2016-Jul-01 20:47 UTC.
Position N 34°06' E 139°15'.

Length 186 m; draft 7.2 m.

Type: Cargo ship. MMSI: 319740000.

Date/timePositionNaut miles runAvg speedWind from/ knotsBaromVisibWave heightAir tempDewpointWater temp
2016-Jun-30 18:24N 34°06' E 139°15'3517.8
2016-Jun-30 16:27N 34°30' E 139°45'1617.9
2016-Jun-30 15:32N 34°41' E 139°60'1818.0
2016-Jun-30 14:33N 34°53' E 140°16'1817.7
2016-Jun-30 13:33N 35°06' E 140°31'1817.4
2016-Jun-30 12:33N 35°19' E 140°45'1817.3
2016-Jun-30 11:31N 35°34' E 140°56'1818.0
2016-Jun-30 10:31N 35°52' E 140°58'1818.4
2016-Jun-30 09:32N 36°09' E 140°50'1717.5
2016-Jun-30 08:32N 36°25' E 140°42'1 0.1
2016-Jun-29 20:10N 36°27' E 140°42'610.2
2016-Jun-29 19:33N 36°21' E 140°45'1313.4
2016-Jun-29 18:33N 36°09' E 140°51'1313.0
2016-Jun-29 17:33N 35°56' E 140°57'1313.0
2016-Jun-29 16:33N 35°44' E 141°04'1412.2
2016-Jun-29 15:23N 35°31' E 140°59'1214.4
2016-Jun-29 14:33N 35°22' E 140°50'1413.8
2016-Jun-29 13:30N 35°10' E 140°39'1313.6
2016-Jun-29 12:32N 35°03' E 140°26'1313.6
2016-Jun-29 11:33N 34°55' E 140°12'1615.5
2016-Jun-29 10:33N 34°49' E 139°55'1414.3
2016-Jun-29 09:33N 34°55' E 139°40'1716.9
2016-Jun-29 08:34N 35°11' E 139°46'1212.0
2016-Jun-29 07:33N 35°23' E 139°42'5 5.2
2016-Jun-29 06:32N 35°28' E 139°41'0 0.0
2016-Jun-29 05:32N 35°28' E 139°41'0 0.0
2016-Jun-29 04:32N 35°28' E 139°41'0 0.0
2016-Jun-29 03:32N 35°28' E 139°41'0 0.0
2016-Jun-29 02:32N 35°28' E 139°41'0 0.0
2016-Jun-29 01:32N 35°28' E 139°41'0 0.0
2016-Jun-29 00:31N 35°28' E 139°41'0 0.0
2016-Jun-28 23:31N 35°28' E 139°41'1 0.7
2016-Jun-28 22:33N 35°28' E 139°41'7 6.8
2016-Jun-28 21:33N 35°23' E 139°45'1111.1
2016-Jun-28 20:33N 35°11' E 139°47'8 7.6
2016-Jun-28 19:33N 35°04' E 139°45'8 8.3
2016-Jun-28 18:33N 34°56' E 139°41'7 7.4
2016-Jun-28 17:33N 34°49' E 139°44'1010.4
2016-Jun-28 16:33N 34°49' E 139°57'1111.2
2016-Jun-28 15:33N 34°48' E 140°11'1010.5
2016-Jun-28 14:33N 34°48' E 140°23'0 0.4
2016-Jun-28 13:30N 34°48' E 140°24'1 0.2
2016-Jun-28 10:15N 34°48' E 140°24'0 0.2
2016-Jun-28 09:33N 34°48' E 140°24'0 0.1
2016-Jun-28 08:21N 34°48' E 140°24'0 0.1
2016-Jun-28 07:15N 34°48' E 140°24'1 0.4
2016-Jun-28 03:27N 34°48' E 140°23'2 1.2
2016-Jun-28 01:30N 34°45' E 140°21'12 1.7
2016-Jun-27 18:26N 34°33' E 140°22'2 0.9
2016-Jun-27 16:32N 34°33' E 140°20'2 1.6
2016-Jun-27 15:32N 34°33' E 140°18'2 1.6
2016-Jun-27 14:14N 34°32' E 140°16'1 1.5
2016-Jun-27 13:29N 34°32' E 140°15'1 1.5
2016-Jun-27 12:32N 34°30' E 140°14'2 1.3
2016-Jun-27 11:05N 34°29' E 140°13'1 1.0
2016-Jun-27 10:08N 34°28' E 140°13'1 0.8
2016-Jun-27 09:32N 34°27' E 140°13'6 2.6
2016-Jun-27 07:21N 34°31' E 140°08'8 9.6
2016-Jun-27 06:34N 34°39' E 140°11'1111.4
2016-Jun-27 05:33N 34°47' E 140°21'1211.4
2016-Jun-27 04:31N 34°54' E 140°32'9 1.3
2016-Jun-26 21:19N 34°56' E 140°43'2 0.8
2016-Jun-26 18:25N 34°56' E 140°40'11 2.3
2016-Jun-26 13:33N 34°52' E 140°27'4 3.0
2016-Jun-26 12:17N 34°49' E 140°24'14 2.0
2016-Jun-26 05:27N 34°36' E 140°19'24 2.3
2016-Jun-25 19:17N 34°23' E 139°55'11 3.6
2016-Jun-25 16:12N 34°25' E 139°41'810.6
2016-Jun-25 15:29N 34°30' E 139°35'4 2.0
2016-Jun-25 13:21N 34°26' E 139°34'2 2.0
2016-Jun-25 12:10N 34°24' E 139°35'2 2.0
2016-Jun-25 11:05N 34°22' E 139°36'233 9.1
2016-Jun-24 09:33N 34°06' E 134°55'1110.6
2016-Jun-24 08:32N 34°17' E 134°59'1717.6
2016-Jun-24 07:33N 34°30' E 135°12'1414.2
2016-Jun-24 06:33N 34°39' E 135°25'0 0.1
2016-Jun-24 04:28N 34°40' E 135°25'0 0.0
2016-Jun-24 03:28N 34°40' E 135°25'0 0.0
2016-Jun-24 02:22N 34°40' E 135°25'0 0.0
2016-Jun-24 01:28N 34°40' E 135°25'0 0.0
2016-Jun-24 00:28N 34°40' E 135°25'0 0.0
2016-Jun-23 23:28N 34°40' E 135°25'0 0.1
2016-Jun-23 22:28N 34°40' E 135°25'4 4.1
2016-Jun-23 21:33N 34°37' E 135°21'1010.1
2016-Jun-23 20:33N 34°30' E 135°13'1413.9
2016-Jun-23 19:33N 34°20' E 135°01'1010.2
2016-Jun-23 18:33N 34°10' E 134°60'5 5.5
2016-Jun-23 17:33N 34°04' E 134°59'6 5.5
2016-Jun-23 16:33N 33°59' E 134°59'10 9.6
2016-Jun-23 15:33N 33°49' E 134°59'  
Track history (hours):
 
Tides and Currents Weather Stations Pressure Air Temp Water Temp Dewpoint Dewpoint Depression Visibility Wind Speed Wind Dir Waves Ship Positions

Bergamot Ace

Last reported at 2016-Jun-30 18:24 UTC. Time now 2016-Jul-01 20:47 UTC.
Position N 34°06' E 139°15'.

Length 186 m; draft 7.2 m.

Type: Cargo ship. MMSI: 319740000.

Date/timePositionNaut miles runAvg speedWind from/ knotsBaromVisibWave heightAir tempDewpointWater temp
2016-Jun-30 18:24N 34°06' E 139°15'3517.8
2016-Jun-30 16:27N 34°30' E 139°45'1617.9
2016-Jun-30 15:32N 34°41' E 139°60'1818.0
2016-Jun-30 14:33N 34°53' E 140°16'1817.7
2016-Jun-30 13:33N 35°06' E 140°31'1817.4
2016-Jun-30 12:33N 35°19' E 140°45'1817.3
2016-Jun-30 11:31N 35°34' E 140°56'1818.0
2016-Jun-30 10:31N 35°52' E 140°58'1818.4
2016-Jun-30 09:32N 36°09' E 140°50'1717.5
2016-Jun-30 08:32N 36°25' E 140°42'1 0.1
2016-Jun-29 20:10N 36°27' E 140°42'610.2
2016-Jun-29 19:33N 36°21' E 140°45'1313.4
2016-Jun-29 18:33N 36°09' E 140°51'1313.0
2016-Jun-29 17:33N 35°56' E 140°57'1313.0
2016-Jun-29 16:33N 35°44' E 141°04'1412.2
2016-Jun-29 15:23N 35°31' E 140°59'1214.4
2016-Jun-29 14:33N 35°22' E 140°50'1413.8
2016-Jun-29 13:30N 35°10' E 140°39'1313.6
2016-Jun-29 12:32N 35°03' E 140°26'1313.6
2016-Jun-29 11:33N 34°55' E 140°12'1615.5
2016-Jun-29 10:33N 34°49' E 139°55'1414.3
2016-Jun-29 09:33N 34°55' E 139°40'1716.9
2016-Jun-29 08:34N 35°11' E 139°46'1212.0
2016-Jun-29 07:33N 35°23' E 139°42'5 5.2
2016-Jun-29 06:32N 35°28' E 139°41'0 0.0
2016-Jun-29 05:32N 35°28' E 139°41'0 0.0
2016-Jun-29 04:32N 35°28' E 139°41'0 0.0
2016-Jun-29 03:32N 35°28' E 139°41'0 0.0
2016-Jun-29 02:32N 35°28' E 139°41'0 0.0
2016-Jun-29 01:32N 35°28' E 139°41'0 0.0
2016-Jun-29 00:31N 35°28' E 139°41'0 0.0
2016-Jun-28 23:31N 35°28' E 139°41'1 0.7
2016-Jun-28 22:33N 35°28' E 139°41'7 6.8
2016-Jun-28 21:33N 35°23' E 139°45'1111.1
2016-Jun-28 20:33N 35°11' E 139°47'8 7.6
2016-Jun-28 19:33N 35°04' E 139°45'8 8.3
2016-Jun-28 18:33N 34°56' E 139°41'7 7.4
2016-Jun-28 17:33N 34°49' E 139°44'1010.4
2016-Jun-28 16:33N 34°49' E 139°57'1111.2
2016-Jun-28 15:33N 34°48' E 140°11'1010.5
2016-Jun-28 14:33N 34°48' E 140°23'0 0.4
2016-Jun-28 13:30N 34°48' E 140°24'1 0.2
2016-Jun-28 10:15N 34°48' E 140°24'0 0.2
2016-Jun-28 09:33N 34°48' E 140°24'0 0.1
2016-Jun-28 08:21N 34°48' E 140°24'0 0.1
2016-Jun-28 07:15N 34°48' E 140°24'1 0.4
2016-Jun-28 03:27N 34°48' E 140°23'2 1.2
2016-Jun-28 01:30N 34°45' E 140°21'12 1.7
2016-Jun-27 18:26N 34°33' E 140°22'2 0.9
2016-Jun-27 16:32N 34°33' E 140°20'2 1.6
2016-Jun-27 15:32N 34°33' E 140°18'2 1.6
2016-Jun-27 14:14N 34°32' E 140°16'1 1.5
2016-Jun-27 13:29N 34°32' E 140°15'1 1.5
2016-Jun-27 12:32N 34°30' E 140°14'2 1.3
2016-Jun-27 11:05N 34°29' E 140°13'1 1.0
2016-Jun-27 10:08N 34°28' E 140°13'1 0.8
2016-Jun-27 09:32N 34°27' E 140°13'6 2.6
2016-Jun-27 07:21N 34°31' E 140°08'8 9.6
2016-Jun-27 06:34N 34°39' E 140°11'1111.4
2016-Jun-27 05:33N 34°47' E 140°21'1211.4
2016-Jun-27 04:31N 34°54' E 140°32'9 1.3
2016-Jun-26 21:19N 34°56' E 140°43'2 0.8
2016-Jun-26 18:25N 34°56' E 140°40'11 2.3
2016-Jun-26 13:33N 34°52' E 140°27'4 3.0
2016-Jun-26 12:17N 34°49' E 140°24'14 2.0
2016-Jun-26 05:27N 34°36' E 140°19'24 2.3
2016-Jun-25 19:17N 34°23' E 139°55'11 3.6
2016-Jun-25 16:12N 34°25' E 139°41'810.6
2016-Jun-25 15:29N 34°30' E 139°35'4 2.0
2016-Jun-25 13:21N 34°26' E 139°34'2 2.0
2016-Jun-25 12:10N 34°24' E 139°35'2 2.0
2016-Jun-25 11:05N 34°22' E 139°36'233 9.1
2016-Jun-24 09:33N 34°06' E 134°55'1110.6
2016-Jun-24 08:32N 34°17' E 134°59'1717.6
2016-Jun-24 07:33N 34°30' E 135°12'1414.2
2016-Jun-24 06:33N 34°39' E 135°25'0 0.1
2016-Jun-24 04:28N 34°40' E 135°25'0 0.0
2016-Jun-24 03:28N 34°40' E 135°25'0 0.0
2016-Jun-24 02:22N 34°40' E 135°25'0 0.0
2016-Jun-24 01:28N 34°40' E 135°25'0 0.0
2016-Jun-24 00:28N 34°40' E 135°25'0 0.0
2016-Jun-23 23:28N 34°40' E 135°25'0 0.1
2016-Jun-23 22:28N 34°40' E 135°25'4 4.1
2016-Jun-23 21:33N 34°37' E 135°21'1010.1
2016-Jun-23 20:33N 34°30' E 135°13'1413.9
2016-Jun-23 19:33N 34°20' E 135°01'1010.2
2016-Jun-23 18:33N 34°10' E 134°60'5 5.5
2016-Jun-23 17:33N 34°04' E 134°59'6 5.5
2016-Jun-23 16:33N 33°59' E 134°59'10 9.6
2016-Jun-23 15:33N 33°49' E 134°59'  

Dump ship's entire track history